Time;durP1;ratioP1;P1;durP2;ratioP2;P2;SDS_P1;SDS_P2;PMS_P1;PMS_P2;Temp;Humidity;BMP_temperature;BMP_pressure;BME280_temperature;BME280_humidity;BME280_pressure;Samples;Min_cycle;Max_cycle;Signal;HPM_P1;HPM_P2
2021/07/30 00:00:58;;;;;;;4.78;3.80;;;15.90;99.90;;;;;;5052782;28;20029;-66
2021/07/30 00:03:24;;;;;;;4.07;3.35;;;15.80;99.90;;;;;;5035730;28;20493;-67
2021/07/30 00:05:51;;;;;;;5.43;3.58;;;15.80;99.90;;;;;;5034071;28;20065;-67
2021/07/30 00:08:19;;;;;;;3.95;3.55;;;15.80;99.90;;;;;;5033880;28;20455;-67
2021/07/30 00:10:46;;;;;;;3.72;3.33;;;15.80;99.90;;;;;;5051966;28;20482;-67
2021/07/30 00:13:12;;;;;;;10.07;4.47;;;15.70;99.90;;;;;;5053943;28;20212;-67
2021/07/30 00:15:38;;;;;;;4.20;3.60;;;15.70;99.90;;;;;;5053209;28;20048;-67
2021/07/30 00:18:04;;;;;;;6.32;3.92;;;15.70;99.90;;;;;;5054137;28;20021;-67
2021/07/30 00:20:30;;;;;;;7.20;3.90;;;15.60;99.90;;;;;;5052751;28;20027;-67
2021/07/30 00:22:56;;;;;;;5.93;3.13;;;15.60;99.90;;;;;;5052874;28;20033;-67
2021/07/30 00:25:22;;;;;;;3.80;3.40;;;15.60;99.90;;;;;;5052867;28;20037;-67
2021/07/30 00:27:47;;;;;;;5.50;3.70;;;15.50;99.90;;;;;;5053978;28;20029;-67
2021/07/30 00:30:13;;;;;;;5.03;4.25;;;15.50;99.90;;;;;;5042648;28;20021;-67
2021/07/30 00:32:39;;;;;;;5.07;4.00;;;15.50;99.90;;;;;;5035954;28;20033;-67
2021/07/30 00:35:05;;;;;;;5.32;4.03;;;15.40;99.90;;;;;;5053633;28;20029;-67
2021/07/30 00:37:34;;;;;;;6.28;3.55;;;15.40;99.90;;;;;;5046060;28;20399;-67
2021/07/30 00:39:59;;;;;;;6.50;3.40;;;15.30;99.90;;;;;;5044012;28;20040;-67
2021/07/30 00:42:25;;;;;;;4.55;3.75;;;15.30;99.90;;;;;;5052602;28;20108;-67
2021/07/30 00:44:51;;;;;;;4.75;3.85;;;15.30;99.90;;;;;;5049425;28;20037;-67
2021/07/30 00:47:17;;;;;;;4.43;3.63;;;15.20;99.90;;;;;;5047513;28;20055;-67
2021/07/30 00:49:43;;;;;;;4.35;3.50;;;15.20;99.90;;;;;;5052691;28;20029;-67
2021/07/30 00:52:08;;;;;;;7.22;3.95;;;15.20;99.90;;;;;;5052449;28;20021;-67
2021/07/30 00:54:34;;;;;;;5.32;3.95;;;15.10;99.90;;;;;;5037207;28;20541;-67
2021/07/30 00:57:01;;;;;;;5.85;4.28;;;15.10;99.90;;;;;;5042734;28;20033;-67
2021/07/30 00:59:27;;;;;;;4.20;3.80;;;15.10;99.90;;;;;;5052365;28;20059;-67
2021/07/30 01:01:53;;;;;;;4.60;3.58;;;15.10;99.90;;;;;;5053336;28;20029;-66
2021/07/30 01:04:19;;;;;;;5.60;4.38;;;15.00;99.90;;;;;;5052715;28;20104;-67
2021/07/30 01:06:45;;;;;;;7.22;3.95;;;15.10;99.90;;;;;;5047781;28;20435;-66
2021/07/30 01:09:11;;;;;;;5.75;3.70;;;15.10;99.90;;;;;;5049216;28;20055;-66
2021/07/30 01:11:37;;;;;;;4.75;3.90;;;15.00;99.90;;;;;;5051709;28;20025;-66
2021/07/30 01:14:03;;;;;;;4.38;3.72;;;15.00;99.90;;;;;;5051182;28;20037;-64
2021/07/30 01:16:29;;;;;;;6.40;4.05;;;15.00;99.90;;;;;;5051341;28;20418;-64
2021/07/30 01:18:54;;;;;;;6.38;3.97;;;14.90;99.90;;;;;;5052926;28;20112;-64
2021/07/30 01:21:24;;;;;;;4.70;3.85;;;14.90;99.90;;;;;;5051993;28;20079;-65
2021/07/30 01:23:52;;;;;;;4.20;3.80;;;14.90;99.90;;;;;;5052649;28;20029;-64
2021/07/30 01:26:19;;;;;;;4.13;3.72;;;14.80;99.90;;;;;;5051051;28;20044;-64
2021/07/30 01:28:46;;;;;;;4.40;4.00;;;14.80;99.90;;;;;;5052250;28;20036;-64
2021/07/30 01:31:11;;;;;;;5.43;3.85;;;14.80;99.90;;;;;;5051269;28;20063;-64
2021/07/30 01:33:37;;;;;;;6.53;4.00;;;14.70;99.90;;;;;;5046281;28;20030;-64
2021/07/30 01:36:03;;;;;;;4.50;3.65;;;14.70;99.90;;;;;;5032605;28;20021;-64
2021/07/30 01:38:30;;;;;;;5.85;4.15;;;14.60;99.90;;;;;;5031511;28;20053;-65
2021/07/30 01:41:08;;;;;;;6.22;4.55;;;14.60;99.90;;;;;;5034003;28;20033;-64
2021/07/30 01:43:38;;;;;;;6.07;3.75;;;14.60;99.90;;;;;;5047714;28;20033;-64
2021/07/30 01:46:03;;;;;;;6.13;4.32;;;14.60;99.90;;;;;;5032258;28;20033;-64
2021/07/30 01:48:29;;;;;;;6.00;4.15;;;14.60;99.90;;;;;;5050783;28;20398;-64
2021/07/30 01:50:55;;;;;;;6.53;3.85;;;14.60;99.90;;;;;;5051941;28;20052;-64
2021/07/30 01:53:21;;;;;;;4.75;3.67;;;14.60;99.90;;;;;;5051358;28;20036;-65
2021/07/30 01:55:46;;;;;;;5.72;4.28;;;14.60;99.90;;;;;;5052124;28;20028;-64
2021/07/30 01:58:12;;;;;;;5.30;3.63;;;14.50;99.90;;;;;;5051901;28;20033;-64
2021/07/30 02:00:38;;;;;;;5.15;4.28;;;14.50;99.90;;;;;;5049592;28;20063;-64
2021/07/30 02:03:03;;;;;;;5.35;4.10;;;14.50;99.90;;;;;;5051584;28;20075;-64
2021/07/30 02:05:29;;;;;;;5.28;4.10;;;14.50;99.90;;;;;;5050588;28;20452;-64
2021/07/30 02:07:55;;;;;;;4.82;4.10;;;14.50;99.90;;;;;;5051914;28;20033;-65
2021/07/30 02:10:20;;;;;;;5.50;3.83;;;14.40;99.90;;;;;;5035448;28;20113;-65
2021/07/30 02:15:30;;;;;;;6.20;4.10;;;14.40;99.90;;;;;;5032522;28;20467;-64
2021/07/30 02:17:56;;;;;;;5.00;3.90;;;14.40;99.90;;;;;;5038549;28;20104;-64
2021/07/30 02:20:21;;;;;;;5.45;4.18;;;14.30;99.90;;;;;;5031431;28;20063;-65
2021/07/30 02:22:47;;;;;;;7.35;4.18;;;14.30;99.90;;;;;;5031607;28;20033;-64
2021/07/30 02:25:13;;;;;;;5.75;4.57;;;14.20;99.90;;;;;;5031776;28;20057;-64
2021/07/30 02:27:38;;;;;;;6.32;4.80;;;14.20;99.90;;;;;;5043376;28;20029;-64
2021/07/30 02:30:04;;;;;;;7.90;4.88;;;14.20;99.90;;;;;;5051708;28;20021;-64
2021/07/30 02:32:30;;;;;;;10.55;5.60;;;14.20;99.90;;;;;;5050679;28;20459;-65
2021/07/30 02:34:56;;;;;;;7.65;5.32;;;14.20;99.90;;;;;;5050823;28;20033;-65
2021/07/30 02:37:21;;;;;;;10.30;4.80;;;14.20;99.90;;;;;;5051050;28;20067;-65
2021/07/30 02:39:47;;;;;;;8.13;5.65;;;14.10;99.90;;;;;;5051655;28;20106;-64
2021/07/30 02:42:12;;;;;;;7.05;5.32;;;14.20;99.90;;;;;;5051312;28;20029;-64
2021/07/30 02:44:38;;;;;;;9.43;5.40;;;14.10;99.90;;;;;;5032614;28;20486;-65
2021/07/30 02:47:04;;;;;;;7.25;5.45;;;14.10;99.90;;;;;;5031373;28;20025;-65
2021/07/30 02:49:29;;;;;;;5.88;5.03;;;14.10;99.90;;;;;;5050552;28;20060;-65
2021/07/30 02:51:55;;;;;;;7.60;5.78;;;14.00;99.90;;;;;;5051578;28;20029;-65
2021/07/30 02:54:21;;;;;;;8.80;5.03;;;14.00;99.90;;;;;;5044455;28;20038;-65
2021/07/30 02:56:46;;;;;;;7.30;5.95;;;14.00;99.90;;;;;;5031369;28;20052;-65
2021/07/30 02:59:12;;;;;;;7.55;5.20;;;13.90;99.90;;;;;;5035614;28;20403;-65
2021/07/30 03:01:37;;;;;;;8.57;6.20;;;13.90;99.90;;;;;;5050810;28;20036;-64
2021/07/30 03:04:03;;;;;;;6.93;5.35;;;13.90;99.90;;;;;;5046912;28;20033;-65
2021/07/30 03:06:29;;;;;;;9.85;6.00;;;13.90;99.90;;;;;;5031004;28;20037;-65
2021/07/30 03:08:56;;;;;;;8.45;5.82;;;13.90;99.90;;;;;;5035559;28;20026;-64
2021/07/30 03:11:22;;;;;;;8.13;6.05;;;13.90;99.90;;;;;;5030755;28;20483;-65
2021/07/30 03:13:48;;;;;;;7.80;6.10;;;13.80;99.90;;;;;;5032170;28;20103;-64
2021/07/30 03:16:14;;;;;;;11.40;6.75;;;13.80;99.90;;;;;;5053092;28;20466;-64
2021/07/30 03:18:41;;;;;;;7.43;5.82;;;13.80;99.90;;;;;;5053639;28;20466;-65
2021/07/30 03:21:06;;;;;;;8.05;6.45;;;13.80;99.90;;;;;;5055194;28;20064;-64
2021/07/30 03:23:32;;;;;;;11.27;6.38;;;13.80;99.90;;;;;;5038854;28;20069;-65
2021/07/30 03:25:58;;;;;;;8.00;6.13;;;13.70;99.90;;;;;;5035145;28;20041;-65
2021/07/30 03:28:23;;;;;;;7.43;5.93;;;13.80;99.90;;;;;;5039820;28;20029;-65
2021/07/30 03:30:49;;;;;;;11.18;6.45;;;13.70;99.90;;;;;;5054697;28;20029;-64
2021/07/30 03:33:15;;;;;;;6.50;5.35;;;13.70;99.90;;;;;;5054520;28;20037;-65
2021/07/30 03:35:40;;;;;;;6.80;5.93;;;13.70;99.90;;;;;;5053199;28;20055;-64
2021/07/30 03:38:06;;;;;;;6.63;5.82;;;13.70;99.90;;;;;;5054368;28;20048;-64
2021/07/30 03:40:33;;;;;;;6.07;5.47;;;13.70;99.90;;;;;;5053791;28;20068;-65
2021/07/30 03:42:58;;;;;;;6.30;5.70;;;13.70;99.90;;;;;;5054647;28;20025;-64
2021/07/30 03:45:24;;;;;;;9.50;5.45;;;13.60;99.90;;;;;;5033085;28;20037;-65
2021/07/30 03:47:50;;;;;;;8.10;5.82;;;13.60;99.90;;;;;;5036675;28;20415;-65
2021/07/30 03:50:16;;;;;;;7.97;5.57;;;13.60;99.90;;;;;;5020369;28;20152;-65
2021/07/30 03:52:42;;;;;;;7.72;5.15;;;13.50;99.90;;;;;;5053701;28;20127;-65
2021/07/30 03:55:08;;;;;;;9.13;5.88;;;13.60;99.90;;;;;;5053679;28;20540;-65
2021/07/30 03:57:34;;;;;;;5.47;4.88;;;13.50;99.90;;;;;;5053280;28;20021;-65
2021/07/30 03:59:59;;;;;;;6.82;5.75;;;13.50;99.90;;;;;;5036304;28;20036;-65
2021/07/30 04:02:25;;;;;;;10.00;5.82;;;13.50;99.90;;;;;;5034054;28;20551;-65
2021/07/30 04:04:51;;;;;;;6.15;5.25;;;13.50;99.90;;;;;;5041599;28;20044;-64
2021/07/30 04:07:16;;;;;;;7.60;5.97;;;13.40;99.90;;;;;;5054190;28;20481;-64
2021/07/30 04:09:42;;;;;;;6.32;5.72;;;13.50;99.90;;;;;;5042007;28;20025;-65
2021/07/30 04:12:08;;;;;;;8.32;5.47;;;13.50;99.90;;;;;;5034283;28;20032;-65
2021/07/30 04:14:34;;;;;;;8.48;5.57;;;13.50;99.90;;;;;;5033221;28;20041;-65
2021/07/30 04:17:00;;;;;;;8.98;5.57;;;13.60;99.90;;;;;;5032809;28;20028;-66
2021/07/30 04:19:26;;;;;;;7.78;5.80;;;13.50;99.90;;;;;;5043904;28;20096;-65
2021/07/30 04:21:51;;;;;;;6.32;5.25;;;13.60;99.90;;;;;;5045009;28;20030;-65
2021/07/30 04:24:17;;;;;;;6.30;5.38;;;13.60;99.90;;;;;;5032662;28;20059;-65
2021/07/30 04:26:43;;;;;;;5.80;4.68;;;13.60;99.90;;;;;;5029110;28;20033;-65
2021/07/30 04:29:09;;;;;;;8.30;5.47;;;13.70;99.90;;;;;;5032763;28;20075;-65
2021/07/30 04:31:40;;;;;;;6.00;5.13;;;13.70;99.90;;;;;;5031513;28;20418;-65
2021/07/30 04:34:07;;;;;;;7.93;5.65;;;13.80;99.90;;;;;;5032216;28;20025;-65
2021/07/30 04:36:32;;;;;;;7.18;5.53;;;13.90;99.90;;;;;;5033252;28;20056;-65
2021/07/30 04:38:58;;;;;;;6.13;5.10;;;14.10;99.90;;;;;;5031839;28;20076;-64
2021/07/30 04:41:24;;;;;;;10.93;5.78;;;14.10;99.90;;;;;;5032216;28;20116;-65
2021/07/30 04:43:49;;;;;;;8.70;5.93;;;14.20;99.90;;;;;;5031766;28;20029;-64
2021/07/30 04:46:16;;;;;;;7.13;5.20;;;14.30;99.90;;;;;;5033231;28;20554;-64
2021/07/30 04:48:42;;;;;;;6.43;5.22;;;14.40;99.90;;;;;;5032013;28;20120;-64
2021/07/30 04:51:08;;;;;;;7.53;4.85;;;14.50;99.90;;;;;;5033311;28;20087;-65
2021/07/30 04:53:34;;;;;;;6.82;5.25;;;14.60;99.90;;;;;;5031301;28;20029;-65
2021/07/30 04:55:59;;;;;;;9.20;5.18;;;14.70;99.90;;;;;;5032399;28;20029;-65
2021/07/30 04:58:25;;;;;;;6.53;5.35;;;14.70;99.90;;;;;;5031307;28;20390;-65
2021/07/30 05:00:51;;;;;;;8.23;5.00;;;14.80;99.90;;;;;;5033644;28;20460;-65
2021/07/30 05:03:16;;;;;;;8.50;5.43;;;14.90;99.90;;;;;;5031696;28;20029;-65
2021/07/30 05:05:42;;;;;;;6.40;4.68;;;15.00;99.90;;;;;;5030958;28;20041;-65
2021/07/30 05:08:08;;;;;;;5.85;4.82;;;15.20;99.90;;;;;;5031201;28;20080;-65
2021/07/30 05:10:33;;;;;;;8.05;4.95;;;15.20;99.90;;;;;;5033352;28;20108;-65
2021/07/30 05:12:59;;;;;;;6.15;5.22;;;15.30;99.90;;;;;;5032238;28;20104;-65
2021/07/30 05:15:25;;;;;;;8.32;5.38;;;15.40;99.90;;;;;;5031246;28;20029;-65
2021/07/30 05:17:51;;;;;;;8.23;5.22;;;15.50;99.90;;;;;;5029277;28;20034;-65
2021/07/30 05:20:16;;;;;;;7.03;5.35;;;15.60;99.90;;;;;;5030057;28;20057;-71
2021/07/30 05:22:42;;;;;;;6.30;5.68;;;15.70;99.90;;;;;;5028601;28;20025;-65
2021/07/30 05:25:12;;;;;;;10.48;6.35;;;15.80;99.90;;;;;;5032365;28;20109;-64
2021/07/30 05:27:38;;;;;;;12.25;6.15;;;15.90;99.90;;;;;;5032249;28;20041;-65
2021/07/30 05:30:05;;;;;;;7.55;6.20;;;16.00;99.90;;;;;;5032602;28;20067;-64
2021/07/30 05:32:30;;;;;;;8.60;6.03;;;16.10;99.90;;;;;;5041772;28;20029;-65
2021/07/30 05:34:56;;;;;;;9.07;5.85;;;16.10;99.90;;;;;;5052022;28;20043;-64
2021/07/30 05:37:21;;;;;;;9.23;6.35;;;16.20;99.90;;;;;;5051865;28;20385;-64
2021/07/30 05:39:47;;;;;;;9.13;6.25;;;16.20;99.90;;;;;;5050719;28;20114;-64
2021/07/30 05:42:13;;;;;;;9.80;6.68;;;16.30;99.90;;;;;;5036901;28;20029;-64
2021/07/30 05:44:39;;;;;;;9.48;6.35;;;16.40;99.90;;;;;;5031455;28;20530;-65
2021/07/30 05:47:05;;;;;;;8.30;6.35;;;16.40;99.90;;;;;;5033813;28;20045;-64
2021/07/30 05:49:33;;;;;;;8.77;6.43;;;16.50;99.90;;;;;;5051514;28;20108;-64
2021/07/30 05:51:59;;;;;;;9.02;6.75;;;16.60;99.90;;;;;;5051961;28;20032;-64
2021/07/30 05:54:24;;;;;;;10.02;6.43;;;16.70;99.90;;;;;;5051745;28;20029;-64
2021/07/30 05:56:57;;;;;;;8.07;6.50;;;16.80;99.90;;;;;;5051686;28;20111;-63
2021/07/30 05:59:23;;;;;;;8.68;6.88;;;16.90;99.90;;;;;;5052165;28;20025;-64
2021/07/30 06:01:49;;;;;;;9.27;6.50;;;17.00;99.90;;;;;;5045762;28;20091;-64
2021/07/30 06:04:15;;;;;;;11.10;6.97;;;17.00;99.90;;;;;;5046285;28;20038;-64
2021/07/30 06:06:40;;;;;;;8.23;6.60;;;17.10;99.90;;;;;;5031104;28;20068;-64
2021/07/30 06:09:06;;;;;;;7.80;7.00;;;17.20;99.90;;;;;;5036850;28;20036;-64
2021/07/30 06:11:32;;;;;;;8.48;6.00;;;17.30;99.90;;;;;;5050832;28;20120;-64
2021/07/30 06:13:58;;;;;;;12.48;7.07;;;17.40;99.90;;;;;;5051558;28;20033;-64
2021/07/30 06:16:24;;;;;;;11.85;7.65;;;17.60;99.90;;;;;;5032171;28;20112;-64
2021/07/30 06:18:49;;;;;;;8.88;6.72;;;17.70;99.90;;;;;;5031265;28;20153;-64
2021/07/30 06:21:21;;;;;;;13.30;7.82;;;17.90;99.90;;;;;;5031677;28;20036;-64
2021/07/30 06:23:47;;;;;;;11.85;6.68;;;18.00;99.90;;;;;;5030998;28;20094;-64
2021/07/30 06:26:14;;;;;;;10.98;6.80;;;18.10;99.90;;;;;;5031693;28;20033;-64
2021/07/30 06:28:40;;;;;;;7.70;5.88;;;18.20;99.90;;;;;;5029194;28;20025;-65
2021/07/30 06:31:05;;;;;;;8.85;6.30;;;18.20;99.90;;;;;;5018891;28;20036;-64
2021/07/30 06:33:32;;;;;;;7.43;5.20;;;18.20;99.90;;;;;;5032148;28;20034;-64
2021/07/30 06:35:57;;;;;;;6.03;5.43;;;18.30;99.90;;;;;;5032007;28;20108;-64
2021/07/30 06:38:24;;;;;;;7.22;5.10;;;18.50;99.90;;;;;;5042663;28;20558;-64
2021/07/30 06:40:50;;;;;;;8.10;5.10;;;18.60;99.90;;;;;;5047971;28;20123;-64
2021/07/30 06:43:16;;;;;;;6.03;4.35;;;18.70;99.90;;;;;;5031512;28;20498;-64
2021/07/30 06:45:44;;;;;;;8.55;4.47;;;18.90;99.90;;;;;;5044883;28;20082;-64
2021/07/30 06:48:10;;;;;;;7.45;4.40;;;19.00;99.90;;;;;;5050841;28;20478;-65
2021/07/30 06:50:35;;;;;;;4.10;3.45;;;19.10;99.90;;;;;;5051363;28;20032;-65
2021/07/30 06:53:01;;;;;;;6.25;4.78;;;19.30;99.90;;;;;;5041433;28;20037;-65
2021/07/30 06:55:27;;;;;;;6.75;4.18;;;19.40;99.70;;;;;;5036286;28;20037;-65
2021/07/30 06:57:53;;;;;;;7.88;4.25;;;19.60;99.00;;;;;;5034680;28;20033;-64
2021/07/30 07:00:18;;;;;;;5.85;4.20;;;19.70;98.50;;;;;;5045321;28;20028;-65
2021/07/30 07:02:44;;;;;;;6.38;3.78;;;19.80;98.30;;;;;;5034386;28;20477;-64
2021/07/30 07:05:10;;;;;;;4.43;3.83;;;20.00;97.80;;;;;;5035346;28;20097;-65
2021/07/30 07:07:35;;;;;;;11.15;4.18;;;20.10;97.60;;;;;;5042922;28;20025;-65
2021/07/30 07:10:01;;;;;;;5.25;3.95;;;20.30;97.00;;;;;;5043875;28;20029;-64
2021/07/30 07:12:26;;;;;;;9.98;4.28;;;20.40;96.90;;;;;;5035086;28;20021;-65
2021/07/30 07:14:52;;;;;;;5.72;4.28;;;20.60;95.90;;;;;;5053156;28;20094;-65
2021/07/30 07:17:19;;;;;;;7.07;4.20;;;20.70;95.40;;;;;;5054950;28;20107;-64
2021/07/30 07:19:45;;;;;;;10.73;4.57;;;20.90;95.00;;;;;;5041519;28;20033;-65
2021/07/30 07:22:11;;;;;;;6.97;4.47;;;21.00;94.80;;;;;;5034430;28;20040;-64
2021/07/30 07:24:38;;;;;;;9.32;4.55;;;21.10;94.60;;;;;;5042656;28;20044;-65
2021/07/30 07:27:05;;;;;;;11.32;4.50;;;21.20;94.10;;;;;;5014796;28;20045;-64
2021/07/30 07:29:32;;;;;;;9.63;4.57;;;21.30;93.50;;;;;;5029357;28;20046;-65
2021/07/30 07:31:57;;;;;;;8.43;4.20;;;21.40;93.20;;;;;;5049047;28;20021;-65
2021/07/30 07:34:23;;;;;;;7.40;4.57;;;21.50;92.70;;;;;;5034981;28;20052;-64
2021/07/30 07:36:49;;;;;;;7.03;4.53;;;21.60;92.70;;;;;;5033529;28;20025;-65
2021/07/30 07:39:14;;;;;;;7.70;4.55;;;21.70;91.40;;;;;;5034648;28;20054;-64
2021/07/30 07:41:43;;;;;;;9.98;4.75;;;21.80;90.70;;;;;;5033540;28;20037;-64
2021/07/30 07:44:09;;;;;;;5.25;4.07;;;21.90;90.40;;;;;;5034587;28;20045;-64
2021/07/30 07:46:35;;;;;;;7.15;4.55;;;22.00;90.40;;;;;;5042246;28;20355;-65
2021/07/30 07:49:01;;;;;;;10.13;4.45;;;22.00;90.00;;;;;;5053202;28;20024;-64
2021/07/30 07:51:27;;;;;;;9.57;4.30;;;22.10;90.30;;;;;;5052860;28;20493;-64
2021/07/30 07:53:52;;;;;;;12.80;4.40;;;22.10;90.40;;;;;;5033079;28;20033;-64
2021/07/30 07:56:18;;;;;;;9.15;4.15;;;22.20;90.50;;;;;;5034511;28;20426;-64
2021/07/30 07:58:44;;;;;;;5.40;4.40;;;22.20;90.20;;;;;;5033224;28;20132;-64
2021/07/30 08:01:14;;;;;;;8.23;4.63;;;22.30;90.20;;;;;;5039565;28;20052;-65
2021/07/30 08:03:40;;;;;;;7.60;4.13;;;22.40;90.40;;;;;;5046146;28;20059;-65
2021/07/30 08:06:05;;;;;;;6.00;4.20;;;22.50;90.00;;;;;;5053481;28;20032;-65
2021/07/30 08:08:31;;;;;;;8.77;4.57;;;22.70;89.30;;;;;;5052522;28;20037;-65
2021/07/30 08:10:57;;;;;;;7.85;4.60;;;22.80;89.30;;;;;;5033177;28;20518;-65
2021/07/30 08:13:23;;;;;;;8.18;4.57;;;22.80;88.30;;;;;;5051854;28;20037;-65
2021/07/30 08:15:48;;;;;;;10.07;4.22;;;22.90;87.10;;;;;;5051537;28;20025;-65
2021/07/30 08:18:14;;;;;;;5.90;4.28;;;23.10;85.40;;;;;;5034170;28;20022;-65
2021/07/30 08:20:39;;;;;;;6.03;4.32;;;23.20;83.80;;;;;;5048218;28;20475;-65
2021/07/30 08:23:05;;;;;;;5.97;4.32;;;23.30;82.00;;;;;;5053469;28;20489;-65
2021/07/30 08:25:31;;;;;;;8.18;4.45;;;23.50;80.40;;;;;;5053811;28;20513;-65
2021/07/30 08:27:56;;;;;;;6.93;4.07;;;23.60;79.40;;;;;;5050473;28;20023;-66
2021/07/30 08:30:22;;;;;;;6.35;4.20;;;23.60;79.00;;;;;;5043243;28;20120;-66
2021/07/30 08:32:48;;;;;;;4.90;4.40;;;23.80;77.30;;;;;;5052665;28;20378;-65
2021/07/30 08:35:13;;;;;;;5.90;4.40;;;23.90;77.10;;;;;;5053529;28;20486;-64
2021/07/30 08:37:39;;;;;;;4.18;3.80;;;24.00;76.70;;;;;;5052599;28;20036;-73
2021/07/30 08:40:06;;;;;;;10.38;4.72;;;24.10;76.30;;;;;;5053681;28;20029;-71
2021/07/30 08:42:36;;;;;;;5.35;4.53;;;24.30;76.10;;;;;;5053189;28;20444;-69
2021/07/30 08:45:03;;;;;;;6.43;3.55;;;24.40;73.80;;;;;;5042306;28;20042;-69
2021/07/30 08:47:29;;;;;;;6.13;3.90;;;24.60;73.50;;;;;;5033245;28;20041;-69
2021/07/30 08:49:56;;;;;;;9.10;3.92;;;24.70;72.50;;;;;;5030024;28;20037;-69
2021/07/30 08:52:35;;;;;;;5.70;4.32;;;24.80;73.00;;;;;;5052674;28;20032;-69
2021/07/30 08:55:01;;;;;;;6.75;3.78;;;25.00;74.20;;;;;;5042520;28;20485;-71
2021/07/30 08:57:27;;;;;;;4.78;4.28;;;25.20;70.10;;;;;;5045581;28;20025;-71
2021/07/30 08:59:52;;;;;;;6.95;4.38;;;25.10;68.00;;;;;;5034798;28;20495;-70
2021/07/30 09:02:18;;;;;;;4.95;4.47;;;25.20;67.60;;;;;;5033191;28;20029;-71
2021/07/30 09:04:44;;;;;;;4.57;4.15;;;25.30;67.80;;;;;;5032234;28;20071;-69
2021/07/30 09:07:10;;;;;;;4.85;4.28;;;25.30;67.80;;;;;;5032723;28;20120;-69
2021/07/30 09:09:35;;;;;;;5.63;4.28;;;25.50;68.90;;;;;;5032491;28;20034;-69
2021/07/30 09:12:04;;;;;;;5.07;4.57;;;25.50;68.70;;;;;;5036641;28;20028;-69
2021/07/30 09:14:34;;;;;;;5.00;4.40;;;25.60;68.50;;;;;;5051903;28;20029;-69
2021/07/30 09:17:00;;;;;;;7.75;5.13;;;25.70;66.60;;;;;;5052063;28;20035;-69
2021/07/30 09:19:25;;;;;;;4.85;4.35;;;25.80;66.00;;;;;;5052452;28;20028;-68
2021/07/30 09:22:08;;;;;;;4.50;4.10;;;25.80;65.80;;;;;;5049682;28;20225;-69
2021/07/30 09:24:39;;;;;;;4.90;4.40;;;25.80;65.80;;;;;;5050233;28;20120;-71
2021/07/30 09:27:07;;;;;;;5.05;4.55;;;25.90;64.90;;;;;;5044287;28;20036;-70
2021/07/30 09:29:33;;;;;;;7.90;4.90;;;25.90;64.90;;;;;;5051394;28;20025;-71
2021/07/30 09:32:11;;;;;;;7.40;5.03;;;26.00;64.40;;;;;;5034145;28;20024;-70
2021/07/30 09:34:43;;;;;;;5.90;4.85;;;26.10;64.10;;;;;;5052232;28;20104;-70
2021/07/30 09:37:12;;;;;;;8.00;4.30;;;26.10;64.50;;;;;;5050931;28;20109;-70
2021/07/30 09:39:46;;;;;;;7.38;4.70;;;26.20;64.20;;;;;;5049901;28;20148;-68
2021/07/30 09:42:17;;;;;;;10.98;4.85;;;26.20;64.20;;;;;;5032702;28;20057;-69
2021/07/30 09:45:12;;;;;;;5.57;4.40;;;26.20;64.10;;;;;;5031473;28;20029;-70
2021/07/30 09:47:49;;;;;;;5.57;4.55;;;26.30;63.90;;;;;;5032184;28;20430;-69
2021/07/30 09:50:15;;;;;;;4.93;4.50;;;26.50;64.10;;;;;;5034413;28;20037;-69
2021/07/30 09:52:41;;;;;;;7.15;4.40;;;26.60;63.10;;;;;;5036734;28;20041;-70
2021/07/30 09:55:09;;;;;;;5.03;4.63;;;26.70;63.40;;;;;;5032299;28;20100;-71
2021/07/30 09:57:36;;;;;;;8.13;5.05;;;26.70;63.40;;;;;;5031632;28;20037;-71
2021/07/30 10:00:07;;;;;;;5.07;4.57;;;26.70;63.50;;;;;;5036648;28;20051;-68
2021/07/30 10:02:37;;;;;;;5.18;4.68;;;26.70;63.20;;;;;;5031449;28;20041;-70
2021/07/30 10:05:05;;;;;;;7.18;4.82;;;26.80;63.30;;;;;;5030937;28;20025;-64
2021/07/30 10:07:32;;;;;;;8.20;4.78;;;27.00;63.40;;;;;;5031363;28;20029;-65
2021/07/30 10:12:35;;;;;;;9.50;4.95;;;27.10;62.30;;;;;;5021041;28;20494;-65
2021/07/30 10:15:02;;;;;;;11.32;5.32;;;27.30;62.20;;;;;;5011389;28;20669;-65
2021/07/30 10:17:35;;;;;;;7.10;4.72;;;27.40;62.10;;;;;;5012077;28;20054;-65
2021/07/30 10:20:06;;;;;;;6.82;4.80;;;27.40;62.50;;;;;;5030771;28;20025;-65
2021/07/30 10:22:46;;;;;;;7.70;4.85;;;27.50;62.30;;;;;;5043515;28;20039;-65
2021/07/30 10:25:17;;;;;;;;;;;27.60;62.10;;;;;;5051752;28;20501;-65
2021/07/30 10:27:43;;;;;;;5.63;4.20;;;27.70;61.80;;;;;;5044579;28;19951;-65
2021/07/30 10:30:15;;;;;;;5.40;4.40;;;27.70;62.30;;;;;;5046102;28;20471;-65
2021/07/30 10:32:46;;;;;;;6.70;4.80;;;27.70;62.00;;;;;;5049671;28;20033;-65
2021/07/30 10:35:40;;;;;;;5.13;4.60;;;27.80;61.80;;;;;;5051556;28;20033;-65
2021/07/30 10:38:24;;;;;;;5.43;4.93;;;27.80;62.30;;;;;;5047848;28;20053;-65
2021/07/30 10:40:58;;;;;;;5.13;4.63;;;27.60;62.50;;;;;;5030583;28;20486;-65
2021/07/30 10:43:27;;;;;;;6.90;5.07;;;27.50;62.70;;;;;;5049307;28;20055;-65
2021/07/30 10:46:07;;;;;;;5.70;5.18;;;27.40;62.80;;;;;;5047928;28;20061;-65
2021/07/30 10:48:34;;;;;;;5.88;4.68;;;27.30;63.20;;;;;;5037125;28;20071;-65
2021/07/30 10:51:10;;;;;;;5.68;4.85;;;27.40;63.10;;;;;;5050405;28;20040;-65
2021/07/30 10:53:38;;;;;;;5.78;4.80;;;27.40;63.70;;;;;;5039133;28;20072;-65
2021/07/30 10:56:06;;;;;;;5.18;4.78;;;27.60;63.10;;;;;;5045255;28;20580;-65
2021/07/30 10:58:40;;;;;;;5.47;4.63;;;27.70;62.10;;;;;;5052167;28;20037;-65
2021/07/30 11:01:14;;;;;;;6.70;5.00;;;27.70;62.20;;;;;;5051726;28;20064;-65
2021/07/30 11:03:49;;;;;;;6.22;5.50;;;27.80;62.70;;;;;;5031562;28;20501;-65
2021/07/30 11:06:15;;;;;;;6.43;5.43;;;27.80;62.30;;;;;;5031610;28;20120;-65
2021/07/30 11:11:49;;;;;;;6.28;5.00;;;27.70;62.50;;;;;;5032830;28;20045;-65
2021/07/30 11:14:36;;;;;;;5.97;5.45;;;27.50;62.60;;;;;;5031179;28;20034;-65
2021/07/30 11:17:10;;;;;;;5.50;4.95;;;27.40;63.20;;;;;;5035407;28;20108;-65
2021/07/30 11:19:49;;;;;;;5.57;5.05;;;27.40;63.50;;;;;;5051255;28;20021;-65
2021/07/30 11:22:16;;;;;;;4.93;4.40;;;27.40;61.90;;;;;;5049952;28;20029;-65
2021/07/30 11:24:47;;;;;;;5.47;4.53;;;27.40;62.40;;;;;;5050839;28;20075;-65
2021/07/30 11:27:19;;;;;;;5.43;4.82;;;27.30;61.70;;;;;;5050554;28;20448;-65
2021/07/30 11:29:47;;;;;;;6.03;5.03;;;27.30;61.70;;;;;;5050086;28;20028;-65
2021/07/30 11:32:15;;;;;;;10.05;5.05;;;27.30;61.70;;;;;;5051211;28;20025;-65
2021/07/30 11:34:43;;;;;;;6.22;5.13;;;27.30;62.60;;;;;;5051008;28;20025;-65
2021/07/30 11:37:11;;;;;;;10.30;5.18;;;27.40;62.10;;;;;;5038865;28;20084;-65
2021/07/30 11:39:42;;;;;;;6.40;5.00;;;27.50;61.30;;;;;;5033837;28;20430;-65
2021/07/30 11:42:08;;;;;;;4.63;4.22;;;27.50;61.70;;;;;;5021579;28;20017;-65
2021/07/30 11:44:42;;;;;;;5.88;4.43;;;27.50;61.30;;;;;;5034542;28;20390;-65
2021/07/30 11:47:08;;;;;;;4.93;4.25;;;27.60;61.60;;;;;;5034092;28;20058;-65
2021/07/30 11:49:36;;;;;;;7.18;4.70;;;27.50;63.20;;;;;;5047744;28;20389;-65
2021/07/30 11:52:04;;;;;;;6.07;4.82;;;27.50;62.60;;;;;;5038387;28;20024;-65
2021/07/30 11:54:30;;;;;;;7.43;4.75;;;27.50;62.40;;;;;;5053117;28;20524;-65
2021/07/30 11:56:57;;;;;;;7.20;4.57;;;27.40;62.30;;;;;;5053530;28;20418;-65
2021/07/30 11:59:23;;;;;;;9.52;5.22;;;27.40;62.20;;;;;;5053471;28;20051;-65
2021/07/30 12:02:03;;;;;;;7.88;5.13;;;27.50;62.50;;;;;;5050890;28;20506;-66
2021/07/30 12:04:30;;;;;;;5.45;4.88;;;27.80;61.70;;;;;;5040686;28;20463;-66
2021/07/30 12:06:59;;;;;;;5.82;5.05;;;27.90;61.40;;;;;;5048185;28;20052;-66
2021/07/30 12:09:27;;;;;;;8.57;4.88;;;28.00;61.10;;;;;;5033949;28;20033;-66
2021/07/30 12:11:58;;;;;;;9.15;4.97;;;28.20;60.50;;;;;;5033245;28;20467;-66
2021/07/30 12:14:29;;;;;;;5.32;4.63;;;28.30;60.70;;;;;;5034245;28;20041;-66
2021/07/30 12:16:56;;;;;;;6.38;4.88;;;28.50;60.30;;;;;;5033003;28;20052;-66
2021/07/30 12:19:35;;;;;;;6.45;5.05;;;28.70;60.00;;;;;;5033759;28;20025;-66
2021/07/30 12:22:03;;;;;;;6.85;5.13;;;29.10;59.90;;;;;;5032628;28;20494;-66
2021/07/30 12:24:31;;;;;;;5.43;4.85;;;29.00;59.40;;;;;;5032555;28;20068;-66
2021/07/30 12:26:57;;;;;;;4.55;4.15;;;29.20;59.60;;;;;;5032810;28;20037;-66
2021/07/30 12:29:36;;;;;;;5.93;5.32;;;29.30;59.50;;;;;;5039498;28;20099;-66
2021/07/30 12:32:17;;;;;;;7.03;5.00;;;29.50;60.70;;;;;;5048121;28;20047;-66
2021/07/30 12:35:03;;;;;;;9.40;4.90;;;29.60;57.80;;;;;;5032107;28;20041;-66
2021/07/30 12:37:32;;;;;;;5.20;4.70;;;29.70;57.40;;;;;;5033763;28;20032;-66
2021/07/30 12:39:59;;;;;;;7.28;5.13;;;29.60;57.90;;;;;;5033163;28;20050;-66
2021/07/30 12:42:27;;;;;;;10.07;5.32;;;29.40;58.10;;;;;;5033818;28;20466;-66
2021/07/30 12:45:11;;;;;;;7.30;5.28;;;29.30;58.80;;;;;;5032891;28;20034;-66
2021/07/30 12:47:58;;;;;;;5.55;4.47;;;29.30;59.20;;;;;;5050509;28;20055;-66
2021/07/30 12:50:29;;;;;;;5.38;4.88;;;29.30;58.50;;;;;;5013754;28;20034;-66
2021/07/30 12:53:06;;;;;;;6.00;4.75;;;29.50;58.80;;;;;;5031658;28;20426;-66
2021/07/30 12:55:58;;;;;;;7.43;5.45;;;29.50;58.40;;;;;;5033381;28;20098;-66